Time;durP1;ratioP1;P1;durP2;ratioP2;P2;SDS_P1;SDS_P2;PMS_P1;PMS_P2;Temp;Humidity;BMP_temperature;BMP_pressure;BME280_temperature;BME280_humidity;BME280_pressure;Samples;Min_cycle;Max_cycle;Signal;HPM_P1;HPM_P2
2021/12/17 05:01:35;;;;;;;36.92;23.40;;;4.80;99.90;;;;;;5426127;22;90177;-78
2021/12/17 05:04:01;;;;;;;36.67;22.75;;;4.80;99.90;;;;;;4961468;28;89107;-77
2021/12/17 05:06:29;;;;;;;34.80;21.55;;;4.70;99.90;;;;;;4944115;28;92526;-78
2021/12/17 05:09:00;;;;;;;33.20;21.27;;;4.70;99.90;;;;;;4944708;28;90867;-79
2021/12/17 05:18:12;;;;;;;37.00;22.45;;;4.70;99.90;;;;;;4963610;28;89030;-77
2021/12/17 05:19:48;;;;;;;39.13;23.13;;;4.60;99.90;;;;;;4965561;28;88912;-78
2021/12/17 05:22:14;;;;;;;36.10;23.15;;;4.60;99.90;;;;;;4947428;28;88967;-77
2021/12/17 05:24:40;;;;;;;40.10;23.10;;;4.60;99.90;;;;;;4965574;28;88868;-77
2021/12/17 05:27:06;;;;;;;37.17;22.42;;;4.60;99.90;;;;;;4966912;28;89871;-77
2021/12/17 05:29:31;;;;;;;32.28;20.90;;;4.60;99.90;;;;;;4965738;28;89126;-78
2021/12/17 05:31:57;;;;;;;43.25;24.42;;;4.60;99.90;;;;;;4963345;28;88947;-78
2021/12/17 05:34:23;;;;;;;41.10;24.15;;;4.60;99.90;;;;;;4944078;28;89098;-78
2021/12/17 05:36:49;;;;;;;39.38;23.70;;;4.70;99.90;;;;;;4944034;28;92482;-78
2021/12/17 05:39:15;;;;;;;42.95;23.38;;;4.60;99.90;;;;;;4961879;28;91230;-78
2021/12/17 05:41:40;;;;;;;38.90;22.23;;;4.70;99.90;;;;;;4984708;28;88621;-78
2021/12/17 05:44:06;;;;;;;35.67;22.65;;;4.60;99.90;;;;;;4966896;28;89192;-78
2021/12/17 05:46:50;;;;;;;36.70;22.25;;;4.60;99.90;;;;;;4944578;28;91456;-78
2021/12/17 05:49:18;;;;;;;38.63;23.15;;;4.60;99.90;;;;;;4943907;28;91361;-78
2021/12/17 05:51:44;;;;;;;38.70;22.88;;;4.60;99.90;;;;;;4961573;28;89439;-78
2021/12/17 05:54:09;;;;;;;35.55;21.40;;;4.60;99.90;;;;;;4961395;28;89232;-78
2021/12/17 05:56:35;;;;;;;35.90;21.73;;;4.60;99.90;;;;;;4943604;28;92759;-78
2021/12/17 05:59:01;;;;;;;39.08;22.98;;;4.50;99.90;;;;;;4961427;28;89701;-78
2021/12/17 06:01:26;;;;;;;35.13;21.02;;;4.50;99.90;;;;;;4943155;28;89014;-78
2021/12/17 06:03:52;;;;;;;33.75;20.77;;;4.40;99.90;;;;;;4961297;28;89172;-78
2021/12/17 06:06:32;;;;;;;38.42;20.55;;;4.30;99.90;;;;;;4961259;28;89892;-78
2021/12/17 06:09:01;;;;;;;35.67;20.98;;;4.10;99.90;;;;;;4961452;28;89759;-78
2021/12/17 06:11:26;;;;;;;36.55;21.23;;;3.90;99.90;;;;;;4960982;28;89076;-77
2021/12/17 06:13:52;;;;;;;38.60;22.80;;;3.80;99.90;;;;;;4961978;28;89148;-77
2021/12/17 06:16:17;;;;;;;39.63;22.77;;;3.70;99.90;;;;;;4961656;28;89002;-77
2021/12/17 06:18:43;;;;;;;43.97;25.45;;;3.70;99.90;;;;;;4962961;28;89655;-76
2021/12/17 06:21:09;;;;;;;43.38;25.40;;;3.70;99.90;;;;;;4964892;28;88985;-77
2021/12/17 06:23:34;;;;;;;44.42;24.88;;;3.90;99.90;;;;;;4964294;28;89168;-78
2021/12/17 06:26:00;;;;;;;42.15;24.92;;;3.90;99.90;;;;;;4964436;28;89062;-76
2021/12/17 06:28:25;;;;;;;41.63;24.15;;;4.00;99.90;;;;;;4964465;28;88993;-76
2021/12/17 06:30:51;;;;;;;41.95;24.58;;;4.00;99.90;;;;;;4963886;28;88958;-77
2021/12/17 06:33:16;;;;;;;45.13;24.83;;;4.10;99.90;;;;;;4961104;28;89152;-76
2021/12/17 06:35:42;;;;;;;47.47;25.90;;;4.10;99.90;;;;;;4960930;28;89592;-76
2021/12/17 06:38:07;;;;;;;43.10;24.73;;;4.10;99.90;;;;;;4960753;28;89438;-76
2021/12/17 06:40:33;;;;;;;40.90;24.25;;;4.00;99.90;;;;;;4964517;28;89145;-76
2021/12/17 06:42:59;;;;;;;43.38;24.17;;;3.90;99.90;;;;;;4942789;28;89308;-76
2021/12/17 06:45:41;;;;;;;45.53;24.48;;;3.90;99.90;;;;;;4960531;28;89588;-76
2021/12/17 06:48:07;;;;;;;36.00;21.83;;;3.70;99.90;;;;;;4943114;28;91238;-76
2021/12/17 07:05:56;;;;;;;40.40;22.33;;;2.80;99.90;;;;;;4959806;28;89018;-76
2021/12/17 07:17:49;;;;;;;40.55;22.30;;;2.10;99.90;;;;;;4960830;28;89431;-75
2021/12/17 07:20:57;;;;;;;37.17;21.45;;;2.00;99.90;;;;;;4960223;28;88989;-76
2021/12/17 07:34:04;;;;;;;45.22;23.27;;;1.70;99.90;;;;;;4960276;28;89004;-76
2021/12/17 07:36:39;;;;;;;42.00;22.00;;;1.60;99.90;;;;;;4942381;28;88892;-79
2021/12/17 07:39:05;;;;;;;33.55;20.33;;;1.60;99.90;;;;;;4942130;28;92084;-77
2021/12/17 07:41:31;;;;;;;44.63;23.25;;;1.60;99.90;;;;;;4958826;28;88882;-77
2021/12/17 07:43:59;;;;;;;41.50;21.75;;;1.50;99.90;;;;;;4942270;28;89174;-77
2021/12/17 07:46:25;;;;;;;41.30;22.80;;;1.50;99.90;;;;;;4960387;28;89215;-77
2021/12/17 07:48:51;;;;;;;46.75;22.90;;;1.50;99.90;;;;;;4942694;28;91666;-77
2021/12/17 07:51:19;;;;;;;42.83;21.92;;;1.50;99.90;;;;;;4942381;28;92228;-77
2021/12/17 07:53:47;;;;;;;42.28;22.10;;;1.50;99.90;;;;;;4960465;28;88892;-78
2021/12/17 07:56:16;;;;;;;41.65;20.98;;;1.50;99.90;;;;;;4943007;28;88990;-77
2021/12/17 07:58:42;;;;;;;41.60;22.13;;;1.50;99.90;;;;;;4942792;28;92017;-78
2021/12/17 08:01:11;;;;;;;41.42;22.77;;;1.50;99.90;;;;;;4943157;28;91217;-77
2021/12/17 08:03:37;;;;;;;39.30;21.27;;;1.50;99.90;;;;;;4960162;28;88963;-77
2021/12/17 08:06:03;;;;;;;44.95;22.48;;;1.50;99.90;;;;;;4943182;28;89790;-76
2021/12/17 08:08:29;;;;;;;43.65;22.48;;;1.50;99.90;;;;;;4941649;28;91494;-76
2021/12/17 08:10:55;;;;;;;43.88;22.38;;;1.50;99.90;;;;;;4959191;28;89017;-75
2021/12/17 08:13:24;;;;;;;42.42;21.38;;;1.60;99.90;;;;;;4959671;28;88963;-76
2021/12/17 08:31:28;;;;;;;37.53;21.25;;;1.80;99.90;;;;;;4958019;28;89399;-77
2021/12/17 08:33:55;;;;;;;40.40;22.85;;;1.90;99.90;;;;;;4958093;28;88946;-77
2021/12/17 08:36:21;;;;;;;40.58;21.55;;;2.00;99.90;;;;;;4941657;28;89219;-76
2021/12/17 08:38:49;;;;;;;39.95;21.42;;;2.10;99.90;;;;;;4940186;28;92130;-76
2021/12/17 08:41:17;;;;;;;37.15;20.65;;;2.20;99.90;;;;;;4941074;28;90826;-76
2021/12/17 08:43:43;;;;;;;35.30;20.88;;;2.20;99.90;;;;;;4940928;28;89045;-76
2021/12/17 08:46:09;;;;;;;40.78;21.10;;;2.30;99.90;;;;;;4941378;28;88979;-76
2021/12/17 08:48:36;;;;;;;38.38;21.73;;;2.30;99.90;;;;;;4942455;28;93340;-76
2021/12/17 08:51:03;;;;;;;40.67;22.92;;;2.30;99.90;;;;;;4964389;28;91895;-75
2021/12/17 08:53:28;;;;;;;41.90;22.42;;;2.30;99.90;;;;;;4958786;28;89264;-76
2021/12/17 08:55:54;;;;;;;42.45;22.77;;;2.40;99.90;;;;;;4941455;28;88953;-76
2021/12/17 08:58:20;;;;;;;40.50;22.67;;;2.40;99.90;;;;;;4958971;28;89964;-76
2021/12/17 09:00:46;;;;;;;49.05;24.88;;;2.40;99.90;;;;;;4958534;28;89351;-76
2021/12/17 09:03:13;;;;;;;43.75;23.65;;;2.50;99.90;;;;;;4958661;28;88840;-77
2021/12/17 09:05:42;;;;;;;45.30;25.45;;;2.60;99.90;;;;;;4958765;28;89136;-77
2021/12/17 09:08:09;;;;;;;48.50;26.15;;;2.60;99.90;;;;;;4958537;28;88903;-77
2021/12/17 09:10:35;;;;;;;48.67;26.17;;;2.70;99.90;;;;;;4958292;28;89245;-77
2021/12/17 09:13:02;;;;;;;50.53;26.80;;;2.70;99.90;;;;;;4957448;28;88974;-77
2021/12/17 09:15:28;;;;;;;47.10;26.15;;;2.90;99.90;;;;;;4958222;28;89022;-77
2021/12/17 09:17:54;;;;;;;48.90;26.42;;;2.90;99.90;;;;;;4958572;28;89913;-77
2021/12/17 09:20:20;;;;;;;50.58;28.10;;;3.00;99.90;;;;;;4958095;28;89692;-77
2021/12/17 09:22:46;;;;;;;44.80;26.52;;;3.00;99.90;;;;;;4958577;28;88978;-77
2021/12/17 09:25:11;;;;;;;51.08;27.85;;;3.10;99.90;;;;;;4958515;28;89145;-77
2021/12/17 09:27:37;;;;;;;49.80;26.48;;;3.10;99.90;;;;;;4958216;28;89482;-77
2021/12/17 09:30:09;;;;;;;47.08;26.58;;;3.20;99.90;;;;;;4956173;28;89138;-77
2021/12/17 09:32:35;;;;;;;50.20;27.85;;;3.20;99.90;;;;;;4957723;28;89004;-77
2021/12/17 09:35:00;;;;;;;50.78;27.75;;;3.20;99.90;;;;;;4957362;28;88940;-77
2021/12/17 09:37:26;;;;;;;46.38;25.40;;;3.30;99.90;;;;;;4958371;28;89707;-77
2021/12/17 09:39:52;;;;;;;46.10;26.33;;;3.40;99.90;;;;;;4940395;28;92222;-77
2021/12/17 09:42:17;;;;;;;48.35;26.42;;;3.50;99.90;;;;;;4958321;28;88960;-77
2021/12/17 09:44:43;;;;;;;48.45;25.73;;;3.60;99.90;;;;;;4954716;28;89633;-76
2021/12/17 09:47:09;;;;;;;47.63;26.92;;;3.70;99.90;;;;;;4957594;28;89788;-76
2021/12/17 09:49:34;;;;;;;45.08;26.20;;;3.70;99.90;;;;;;4957709;28;90705;-77
2021/12/17 09:52:00;;;;;;;41.92;24.40;;;3.80;99.90;;;;;;4957514;28;88992;-76
2021/12/17 09:54:27;;;;;;;47.72;24.52;;;3.70;99.90;;;;;;4940044;28;89251;-76
2021/12/17 09:56:53;;;;;;;44.95;25.50;;;3.80;99.90;;;;;;4939808;28;92827;-76
2021/12/17 09:59:19;;;;;;;43.38;24.80;;;3.90;99.90;;;;;;4957670;28;89620;-76
2021/12/17 10:01:45;;;;;;;44.03;25.33;;;4.00;99.90;;;;;;4957000;28;89080;-76
2021/12/17 10:04:17;;;;;;;41.83;24.75;;;4.10;99.90;;;;;;4957527;28;88904;-77
2021/12/17 10:06:43;;;;;;;42.63;23.35;;;4.20;99.90;;;;;;4961200;28;89918;-77
2021/12/17 10:09:09;;;;;;;46.97;26.20;;;4.30;99.90;;;;;;4961093;28;89340;-76
2021/12/17 10:11:35;;;;;;;45.03;25.55;;;4.60;99.90;;;;;;4960707;28;89037;-76
2021/12/17 10:14:27;;;;;;;46.50;26.80;;;4.90;99.90;;;;;;4959819;28;89268;-76
2021/12/17 10:17:08;;;;;;;38.50;22.73;;;5.30;99.90;;;;;;4956570;28;89825;-75
2021/12/17 10:19:49;;;;;;;35.90;22.48;;;5.70;99.90;;;;;;4943052;28;92161;-76
2021/12/17 10:22:17;;;;;;;33.20;21.40;;;6.10;99.90;;;;;;4960755;28;88968;-76
2021/12/17 10:25:07;;;;;;;27.55;18.30;;;6.30;99.90;;;;;;4960726;28;89212;-76
2021/12/17 10:27:39;;;;;;;26.15;17.73;;;6.50;99.90;;;;;;4960603;28;91838;-76
2021/12/17 10:30:13;;;;;;;28.17;18.98;;;6.60;99.90;;;;;;4960952;28;89277;-76
2021/12/17 10:32:42;;;;;;;28.17;18.77;;;6.90;99.90;;;;;;4960507;28;88999;-76
2021/12/17 10:35:10;;;;;;;30.13;19.90;;;7.10;99.90;;;;;;4942917;28;89057;-76
2021/12/17 10:37:39;;;;;;;20.83;15.40;;;7.30;99.90;;;;;;4960498;28;89183;-77
2021/12/17 10:40:38;;;;;;;20.73;14.35;;;7.50;99.90;;;;;;4960520;28;89787;-77
2021/12/17 10:43:21;;;;;;;18.60;13.13;;;7.60;99.90;;;;;;4960264;28;89266;-77
2021/12/17 10:48:29;;;;;;;18.92;13.57;;;7.70;99.90;;;;;;4957583;28;88890;-79
2021/12/17 10:51:30;;;;;;;16.40;12.52;;;7.90;99.90;;;;;;4942586;28;91862;-81
2021/12/17 10:54:09;;;;;;;18.13;12.90;;;7.80;99.90;;;;;;4960525;28;89161;-77
2021/12/17 10:56:43;;;;;;;26.90;18.27;;;7.90;99.90;;;;;;4960966;28;89083;-78
2021/12/17 10:59:16;;;;;;;15.75;11.82;;;8.10;99.90;;;;;;4960866;28;89022;-77
2021/12/17 11:01:44;;;;;;;17.27;11.95;;;8.10;99.90;;;;;;4941777;28;91022;-78
2021/12/17 11:04:34;;;;;;;14.75;11.02;;;8.20;99.90;;;;;;4960068;28;88987;-77
2021/12/17 11:07:00;;;;;;;15.88;11.45;;;8.20;99.90;;;;;;4960557;28;89005;-77
2021/12/17 11:09:38;;;;;;;17.48;11.43;;;8.30;99.90;;;;;;4960020;28;91377;-79
2021/12/17 11:12:29;;;;;;;20.52;12.55;;;8.30;99.90;;;;;;4960349;28;89248;-78
2021/12/17 11:15:07;;;;;;;16.25;12.48;;;8.20;99.90;;;;;;4948950;28;88919;-77
2021/12/17 11:17:33;;;;;;;18.65;12.02;;;8.30;99.90;;;;;;4961658;28;89273;-78
2021/12/17 11:20:05;;;;;;;17.63;11.68;;;8.20;99.90;;;;;;4961457;28;90096;-78
2021/12/17 11:22:31;;;;;;;15.70;11.88;;;8.30;99.90;;;;;;4962053;28;89711;-76
2021/12/17 11:25:00;;;;;;;17.33;11.70;;;8.30;99.90;;;;;;4960869;28;88946;-77
2021/12/17 11:27:27;;;;;;;18.25;12.40;;;8.30;99.90;;;;;;4942529;28;89131;-75
2021/12/17 11:29:53;;;;;;;15.60;11.25;;;8.40;99.90;;;;;;4959701;28;90026;-76
2021/12/17 11:32:19;;;;;;;14.32;10.57;;;8.40;99.90;;;;;;4941846;28;92084;-75
2021/12/17 11:34:45;;;;;;;14.93;10.20;;;8.40;99.90;;;;;;4959312;28;88878;-77
2021/12/17 11:37:11;;;;;;;14.50;10.88;;;8.50;99.90;;;;;;4958764;28;88737;-77
2021/12/17 11:39:47;;;;;;;17.95;10.75;;;8.40;99.90;;;;;;4958197;28;89063;-76
2021/12/17 11:42:43;;;;;;;15.07;10.77;;;8.40;99.90;;;;;;4940970;28;91521;-77
2021/12/17 11:45:25;;;;;;;14.73;10.48;;;8.40;99.90;;;;;;4959142;28;88697;-76
2021/12/17 11:47:53;;;;;;;14.40;9.85;;;8.50;99.90;;;;;;4942383;28;88932;-80
2021/12/17 11:50:19;;;;;;;15.25;10.70;;;8.40;99.90;;;;;;4942485;28;93278;-78
2021/12/17 11:52:54;;;;;;;14.50;10.35;;;8.40;99.90;;;;;;4959390;28;89121;-78
2021/12/17 11:55:34;;;;;;;13.75;10.27;;;8.60;99.90;;;;;;4959824;28;89062;-77
2021/12/17 11:58:10;;;;;;;14.20;10.77;;;8.50;99.90;;;;;;4940188;28;89324;-76
2021/12/17 12:00:41;;;;;;;13.18;9.60;;;8.40;99.90;;;;;;4948968;28;91542;-77
2021/12/17 12:03:24;;;;;;;12.63;9.68;;;8.30;99.90;;;;;;4977908;28;88790;-76
2021/12/17 12:05:51;;;;;;;15.80;9.75;;;8.10;99.90;;;;;;4959449;28;89735;-78
2021/12/17 12:08:39;;;;;;;12.10;8.90;;;8.20;99.90;;;;;;4942642;28;89052;-75
2021/12/17 12:11:25;;;;;;;11.95;8.93;;;8.10;99.90;;;;;;4959885;28;90134;-76
2021/12/17 12:13:53;;;;;;;13.38;9.35;;;8.10;99.90;;;;;;4958451;28;89891;-76
2021/12/17 12:16:28;;;;;;;12.68;9.00;;;8.10;99.90;;;;;;4958937;28;89404;-77
2021/12/17 12:18:57;;;;;;;11.60;8.73;;;8.10;99.90;;;;;;4960190;28;89244;-76
2021/12/17 12:21:32;;;;;;;10.32;8.18;;;8.10;99.90;;;;;;4959601;28;89698;-76
2021/12/17 12:24:16;;;;;;;10.45;7.78;;;8.10;99.90;;;;;;4941833;28;90376;-74
2021/12/17 12:26:50;;;;;;;9.57;7.88;;;8.10;99.90;;;;;;4959936;28;89082;-76
2021/12/17 12:29:21;;;;;;;10.50;7.40;;;8.10;99.90;;;;;;4959342;28;88983;-77
2021/12/17 12:31:53;;;;;;;9.18;6.97;;;8.10;99.90;;;;;;4959536;28;88901;-78
2021/12/17 12:34:31;;;;;;;9.25;7.00;;;8.20;99.90;;;;;;4959706;28;89563;-77
2021/12/17 12:37:03;;;;;;;9.00;7.20;;;8.10;99.90;;;;;;4959912;28;89026;-77
2021/12/17 12:39:49;;;;;;;8.70;6.75;;;8.10;99.90;;;;;;4959959;28;88881;-77
2021/12/17 12:42:35;;;;;;;9.20;6.53;;;8.20;99.90;;;;;;4942294;28;92995;-77
2021/12/17 12:45:05;;;;;;;9.15;6.95;;;8.10;99.90;;;;;;4943013;28;92233;-79
2021/12/17 12:47:50;;;;;;;9.43;7.05;;;8.00;99.90;;;;;;4942266;28;89038;-76
2021/12/17 12:50:19;;;;;;;9.13;6.82;;;8.00;99.90;;;;;;4959887;28;88922;-76
2021/12/17 12:52:47;;;;;;;8.85;5.78;;;7.90;99.90;;;;;;4958570;28;88965;-76
2021/12/17 12:55:24;;;;;;;7.28;5.88;;;8.10;99.90;;;;;;4940816;28;92105;-76
2021/12/17 12:58:15;;;;;;;8.35;6.20;;;8.10;99.90;;;;;;4958941;28;89201;-76
2021/12/17 13:00:52;;;;;;;6.93;5.57;;;7.90;99.90;;;;;;4959144;28;88911;-76
2021/12/17 13:03:29;;;;;;;7.15;5.43;;;7.70;99.90;;;;;;4958388;28;89054;-76
2021/12/17 13:05:56;;;;;;;6.90;5.40;;;7.70;99.90;;;;;;4940885;28;90156;-76
2021/12/17 13:08:22;;;;;;;5.85;4.93;;;7.70;99.90;;;;;;4959117;28;89471;-76
2021/12/17 13:11:09;;;;;;;8.05;5.15;;;7.60;99.90;;;;;;4941193;28;89068;-76
2021/12/17 13:13:45;;;;;;;8.00;5.78;;;7.60;99.90;;;;;;4958614;28;89947;-76
2021/12/17 13:21:46;;;;;;;7.80;5.75;;;7.60;99.90;;;;;;4958915;28;88980;-76
2021/12/17 13:24:17;;;;;;;6.80;5.43;;;7.50;99.90;;;;;;4958304;28;90174;-76
2021/12/17 13:26:49;;;;;;;7.88;5.78;;;7.60;99.90;;;;;;4958645;28;89106;-76
2021/12/17 13:29:16;;;;;;;8.20;6.07;;;7.60;99.90;;;;;;4958719;28;88963;-76
2021/12/17 13:31:45;;;;;;;6.93;5.68;;;7.60;99.90;;;;;;4958500;28;88912;-76
2021/12/17 13:34:29;;;;;;;7.82;6.57;;;7.60;99.90;;;;;;4958325;28;89116;-76
2021/12/17 13:37:15;;;;;;;7.13;5.30;;;7.60;99.90;;;;;;4958933;28;89203;-76
2021/12/17 13:39:49;;;;;;;7.53;6.20;;;7.50;99.90;;;;;;4961663;28;88993;-76
2021/12/17 13:42:39;;;;;;;8.25;6.80;;;7.50;99.90;;;;;;4961744;28;89069;-76
2021/12/17 13:45:06;;;;;;;9.43;6.80;;;7.60;99.90;;;;;;4932244;28;92401;-76
2021/12/17 13:47:32;;;;;;;9.27;7.35;;;7.70;99.90;;;;;;4961674;28;88799;-76
2021/12/17 13:50:40;;;;;;;11.32;8.25;;;7.70;99.90;;;;;;4961702;28;88902;-76
2021/12/17 13:53:12;;;;;;;12.07;8.43;;;7.70;99.90;;;;;;4894324;28;89192;-76
2021/12/17 13:55:44;;;;;;;12.88;9.18;;;7.50;99.90;;;;;;4954736;28;89829;-76
2021/12/17 13:58:28;;;;;;;9.70;7.68;;;7.50;99.90;;;;;;4961934;28;89060;-76
2021/12/17 14:00:58;;;;;;;8.60;6.75;;;7.50;99.90;;;;;;4961825;28;88650;-81
2021/12/17 14:03:31;;;;;;;8.40;6.88;;;7.30;99.90;;;;;;4961849;28;89004;-78
2021/12/17 14:06:08;;;;;;;8.95;6.55;;;7.10;99.90;;;;;;4946192;28;90069;-78
2021/12/17 14:08:39;;;;;;;8.43;6.78;;;7.10;99.90;;;;;;4944012;28;92402;-76
2021/12/17 14:11:33;;;;;;;9.50;7.88;;;7.10;99.90;;;;;;4944903;28;89379;-77
2021/12/17 14:14:00;;;;;;;11.00;8.32;;;7.00;99.90;;;;;;4945633;28;88930;-78
2021/12/17 14:16:31;;;;;;;9.82;7.20;;;7.10;99.90;;;;;;4963486;28;89211;-79
2021/12/17 14:18:58;;;;;;;17.40;13.65;;;7.00;99.90;;;;;;4970531;28;89494;-82
2021/12/17 14:21:29;;;;;;;18.95;14.02;;;7.00;99.90;;;;;;4956712;28;90667;-78
2021/12/17 14:23:54;;;;;;;33.13;26.10;;;7.00;99.90;;;;;;4972830;28;88997;-83
2021/12/17 14:26:27;;;;;;;11.38;9.18;;;6.90;99.90;;;;;;4979640;28;89535;-81
2021/12/17 14:28:53;;;;;;;28.60;21.52;;;6.90;99.90;;;;;;4962112;28;91343;-81
2021/12/17 14:31:23;;;;;;;13.65;10.45;;;6.90;99.90;;;;;;4958627;28;89106;-81
2021/12/17 14:33:56;;;;;;;15.45;10.80;;;6.90;99.90;;;;;;4952019;28;89049;-80
2021/12/17 14:36:38;;;;;;;9.60;7.72;;;6.80;99.90;;;;;;4958605;28;91572;-83
2021/12/17 14:39:08;;;;;;;11.02;8.30;;;6.80;99.90;;;;;;4973326;28;90132;-82
2021/12/17 14:41:47;;;;;;;10.07;7.82;;;6.70;99.90;;;;;;4950356;28;89056;-80
2021/12/17 14:44:33;;;;;;;10.43;8.77;;;6.60;99.90;;;;;;4965936;28;89312;-80
2021/12/17 14:47:15;;;;;;;11.45;8.15;;;6.60;99.90;;;;;;4965224;28;89053;-80
2021/12/17 15:03:22;;;;;;;22.73;17.65;;;6.20;99.90;;;;;;4964296;28;88772;-81
2021/12/17 15:05:48;;;;;;;13.02;11.20;;;6.20;99.90;;;;;;4967722;28;89054;-80
2021/12/17 15:08:14;;;;;;;13.52;11.40;;;6.20;99.90;;;;;;4961126;28;92518;-84
2021/12/17 15:10:40;;;;;;;16.70;13.05;;;6.20;99.90;;;;;;4968325;28;91003;-82
2021/12/17 15:13:06;;;;;;;12.48;9.68;;;6.20;99.90;;;;;;4952933;28;89248;-83
2021/12/17 15:15:37;;;;;;;14.85;10.10;;;6.10;99.90;;;;;;4949091;28;89212;-83
2021/12/17 15:18:05;;;;;;;19.00;16.48;;;6.10;99.90;;;;;;4948867;28;91668;-83
2021/12/17 15:20:32;;;;;;;12.98;11.52;;;6.10;99.90;;;;;;4947959;28;92298;-82
2021/12/17 15:23:00;;;;;;;11.52;9.50;;;6.00;99.90;;;;;;4962413;28;89221;-81
2021/12/17 15:25:27;;;;;;;14.10;10.63;;;6.00;99.90;;;;;;4963446;28;89111;-80
2021/12/17 15:27:53;;;;;;;14.55;12.23;;;5.90;99.90;;;;;;4963943;28;91817;-81
2021/12/17 15:30:25;;;;;;;13.10;9.73;;;5.90;99.90;;;;;;4963962;28;92151;-82
2021/12/17 15:32:52;;;;;;;12.85;10.48;;;5.90;99.90;;;;;;4966613;28;89082;-79
2021/12/17 15:35:20;;;;;;;13.93;9.57;;;5.80;99.90;;;;;;4964226;28;89214;-78
2021/12/17 15:37:46;;;;;;;11.95;10.15;;;5.80;99.90;;;;;;4964632;28;89028;-77
2021/12/17 15:40:13;;;;;;;13.02;9.88;;;5.80;99.90;;;;;;4965186;28;88713;-80
2021/12/17 15:42:39;;;;;;;12.40;10.10;;;5.70;99.90;;;;;;4967222;28;89010;-81
2021/12/17 15:45:07;;;;;;;14.30;10.18;;;5.70;99.90;;;;;;4968211;28;89368;-84
2021/12/17 15:47:33;;;;;;;10.65;9.02;;;5.70;99.90;;;;;;4968168;28;91773;-82
2021/12/17 15:49:58;;;;;;;14.07;9.90;;;5.70;99.90;;;;;;4964745;28;91960;-81
2021/12/17 15:52:24;;;;;;;13.00;10.05;;;5.70;99.90;;;;;;4966052;28;88610;-83
2021/12/17 15:54:50;;;;;;;15.23;10.38;;;5.60;99.90;;;;;;4966367;28;88935;-81
2021/12/17 15:57:16;;;;;;;14.75;10.90;;;5.60;99.90;;;;;;4964288;28;91943;-81
2021/12/17 15:59:43;;;;;;;13.77;10.98;;;5.60;99.90;;;;;;4963942;28;91757;-81
2021/12/17 16:02:09;;;;;;;13.85;10.43;;;5.60;99.90;;;;;;4964044;28;89131;-81
2021/12/17 16:04:39;;;;;;;13.55;10.50;;;5.60;99.90;;;;;;4966894;28;89153;-83
2021/12/17 16:07:05;;;;;;;12.40;10.15;;;5.60;99.90;;;;;;4965127;28;91855;-82
2021/12/17 16:21:01;;;;;;;17.95;13.05;;;5.60;99.90;;;;;;4909467;28;88948;-80
2021/12/17 16:23:49;;;;;;;18.50;12.73;;;5.60;99.90;;;;;;4975626;28;88901;-82
2021/12/17 16:26:17;;;;;;;18.42;12.95;;;5.60;99.90;;;;;;4967307;28;89032;-82
2021/12/17 16:28:45;;;;;;;15.85;12.40;;;5.60;99.90;;;;;;4964728;28;92966;-81
2021/12/17 16:31:18;;;;;;;17.52;12.85;;;5.60;99.90;;;;;;4967182;28;91138;-81
2021/12/17 16:33:44;;;;;;;23.02;16.30;;;5.60;99.90;;;;;;4966962;28;88871;-81
2021/12/17 16:36:11;;;;;;;17.48;13.55;;;5.50;99.90;;;;;;4963775;28;88999;-80
2021/12/17 16:38:37;;;;;;;17.45;13.43;;;5.50;99.90;;;;;;4963785;28;90356;-82
2021/12/17 16:41:04;;;;;;;16.60;11.90;;;5.50;99.90;;;;;;4965005;28;88894;-80
2021/12/17 16:43:31;;;;;;;14.05;11.40;;;5.50;99.90;;;;;;4962337;28;90062;-80
2021/12/17 16:48:37;;;;;;;14.10;11.05;;;5.40;99.90;;;;;;4957749;28;89641;-79
2021/12/17 16:51:03;;;;;;;14.77;12.10;;;5.40;99.90;;;;;;4962085;28;88834;-81
2021/12/17 16:53:29;;;;;;;16.60;11.05;;;5.40;99.90;;;;;;4963688;28;89247;-81
2021/12/17 16:55:54;;;;;;;16.48;11.52;;;5.40;99.90;;;;;;4958664;28;89236;-81
2021/12/17 16:58:21;;;;;;;17.33;12.30;;;5.40;99.90;;;;;;4940741;28;91528;-81
2021/12/17 17:00:46;;;;;;;16.83;12.43;;;5.30;99.90;;;;;;4962771;28;89096;-81
2021/12/17 17:03:14;;;;;;;16.17;12.10;;;5.30;99.90;;;;;;4947069;28;89100;-81
2021/12/17 17:05:43;;;;;;;16.50;11.73;;;5.30;99.90;;;;;;4963934;28;89276;-81
2021/12/17 17:08:09;;;;;;;15.65;12.07;;;5.30;99.90;;;;;;4946533;28;92938;-82
2021/12/17 17:10:35;;;;;;;17.00;12.57;;;5.30;99.90;;;;;;4946168;28;91124;-80
2021/12/17 17:13:04;;;;;;;16.58;12.77;;;5.30;99.90;;;;;;4946064;28;89083;-82
2021/12/17 17:15:34;;;;;;;17.25;12.23;;;5.30;99.90;;;;;;4947989;28;88910;-82
2021/12/17 17:18:01;;;;;;;15.30;12.20;;;5.30;99.90;;;;;;4946030;28;91800;-80
2021/12/17 17:20:26;;;;;;;17.00;12.50;;;5.30;99.90;;;;;;4949195;28;91203;-84
2021/12/17 17:22:52;;;;;;;18.00;13.52;;;5.30;99.90;;;;;;4965612;28;89133;-82
2021/12/17 17:25:17;;;;;;;20.02;14.45;;;5.30;99.90;;;;;;4965433;28;89326;-80
2021/12/17 17:27:43;;;;;;;18.55;14.15;;;5.30;99.90;;;;;;4964328;28;90564;-82
2021/12/17 17:30:09;;;;;;;18.33;15.35;;;5.30;99.90;;;;;;4949176;28;92202;-81
2021/12/17 17:32:36;;;;;;;18.75;14.82;;;5.20;99.90;;;;;;4970585;28;88840;-84
2021/12/17 17:35:02;;;;;;;20.02;15.65;;;5.20;99.90;;;;;;4972024;28;88978;-86
2021/12/17 17:37:31;;;;;;;21.83;16.45;;;5.20;99.90;;;;;;4971331;28;88891;-85
2021/12/17 17:39:59;;;;;;;20.45;15.93;;;5.20;99.90;;;;;;4953827;28;91219;-84
2021/12/17 17:42:25;;;;;;;21.05;16.45;;;5.20;99.90;;;;;;4971505;28;88849;-83
2021/12/17 17:44:50;;;;;;;22.27;16.42;;;5.10;99.90;;;;;;4955357;28;88386;-84
2021/12/17 17:47:22;;;;;;;18.67;14.75;;;5.10;99.90;;;;;;4971312;28;88710;-84
2021/12/17 17:49:50;;;;;;;24.02;17.45;;;5.10;99.90;;;;;;4952865;28;91743;-84
2021/12/17 17:52:16;;;;;;;22.20;16.25;;;5.10;99.90;;;;;;4950906;28;89108;-83
2021/12/17 17:54:42;;;;;;;21.75;15.82;;;5.10;99.90;;;;;;4950693;28;89005;-84
2021/12/17 17:57:09;;;;;;;24.85;16.23;;;5.10;99.90;;;;;;4968146;28;89041;-84
2021/12/17 17:59:35;;;;;;;21.10;15.45;;;5.10;99.90;;;;;;4951219;28;92021;-83
2021/12/17 18:02:01;;;;;;;27.85;18.17;;;5.10;99.90;;;;;;4967993;28;88806;-84
2021/12/17 18:04:26;;;;;;;35.15;21.25;;;5.10;99.90;;;;;;4966872;28;88480;-83
2021/12/17 18:06:52;;;;;;;33.13;20.92;;;5.00;99.90;;;;;;4968244;28;90233;-82
2021/12/17 18:09:17;;;;;;;28.10;18.50;;;5.10;99.90;;;;;;4951515;28;90928;-84
2021/12/17 18:11:51;;;;;;;28.70;18.90;;;5.10;99.90;;;;;;4963041;28;88675;-85
2021/12/17 18:14:18;;;;;;;29.77;20.65;;;5.10;99.90;;;;;;4984933;28;88192;-82
2021/12/17 18:16:44;;;;;;;28.83;20.67;;;5.10;99.90;;;;;;4953622;28;91416;-82
2021/12/17 18:19:09;;;;;;;27.33;19.15;;;5.10;99.90;;;;;;4946881;28;90495;-79
2021/12/17 18:21:36;;;;;;;25.70;17.10;;;5.10;99.90;;;;;;4944470;28;89003;-80
2021/12/17 18:24:02;;;;;;;22.83;17.33;;;5.10;99.90;;;;;;4959287;28;89173;-78
2021/12/17 18:26:27;;;;;;;26.90;18.30;;;5.10;99.90;;;;;;4959672;28;90228;-76
2021/12/17 18:28:55;;;;;;;27.80;19.05;;;5.10;99.90;;;;;;4961371;28;88989;-76
2021/12/17 18:31:21;;;;;;;26.75;19.05;;;5.10;99.90;;;;;;4943432;28;89025;-76
2021/12/17 18:33:47;;;;;;;24.88;17.83;;;5.10;99.90;;;;;;4961157;28;89012;-76
2021/12/17 18:36:13;;;;;;;27.88;19.13;;;5.10;99.90;;;;;;4961237;28;89936;-77
2021/12/17 18:38:40;;;;;;;28.52;19.27;;;5.20;99.90;;;;;;4965045;28;88950;-82
2021/12/17 18:41:09;;;;;;;25.88;18.30;;;5.10;99.90;;;;;;4964700;28;88963;-78
2021/12/17 18:46:20;;;;;;;26.48;18.33;;;5.10;99.90;;;;;;4965162;28;88945;-79
2021/12/17 18:48:46;;;;;;;32.25;21.65;;;5.20;99.90;;;;;;4963138;28;90136;-78
2021/12/17 18:51:11;;;;;;;35.10;23.55;;;5.10;99.90;;;;;;4963774;28;89124;-79
2021/12/17 18:53:38;;;;;;;37.25;23.50;;;5.10;99.90;;;;;;4945719;28;89388;-77
2021/12/17 18:56:06;;;;;;;43.58;27.02;;;5.20;99.90;;;;;;4945316;28;92944;-79
2021/12/17 18:58:31;;;;;;;38.22;25.38;;;5.10;99.90;;;;;;4962836;28;88797;-78
2021/12/17 19:00:58;;;;;;;37.92;23.85;;;5.10;99.90;;;;;;4962492;28;89314;-79
2021/12/17 19:03:25;;;;;;;30.25;20.80;;;5.10;99.90;;;;;;4962570;28;89839;-79
2021/12/17 19:05:55;;;;;;;33.90;21.50;;;5.10;99.90;;;;;;4944703;28;91598;-79
2021/12/17 19:08:22;;;;;;;37.08;22.52;;;5.10;99.90;;;;;;4963298;28;89039;-80
2021/12/17 19:10:50;;;;;;;34.05;20.58;;;5.10;99.90;;;;;;4947934;28;88980;-81
2021/12/17 19:13:19;;;;;;;32.05;20.13;;;5.10;99.90;;;;;;4965920;28;88979;-80
2021/12/17 19:15:45;;;;;;;33.38;19.65;;;5.00;99.90;;;;;;4967826;28;88987;-81
2021/12/17 19:18:19;;;;;;;30.75;19.77;;;5.10;99.90;;;;;;4966564;28;88762;-81
2021/12/17 19:20:45;;;;;;;29.65;19.05;;;5.10;99.90;;;;;;4947927;28;88914;-80
2021/12/17 19:23:10;;;;;;;33.20;21.77;;;5.10;99.90;;;;;;4948000;28;89310;-80
2021/12/17 19:25:37;;;;;;;30.88;18.95;;;5.10;99.90;;;;;;4949083;28;91871;-80
2021/12/17 19:28:05;;;;;;;30.95;21.33;;;5.10;99.90;;;;;;4948082;28;91924;-80
2021/12/17 19:30:33;;;;;;;33.17;20.52;;;5.10;99.90;;;;;;4965705;28;89171;-80